Time;durP1;ratioP1;P1;durP2;ratioP2;P2;SDS_P1;SDS_P2;PMS_P1;PMS_P2;Temp;Humidity;BMP_temperature;BMP_pressure;BME280_temperature;BME280_humidity;BME280_pressure;Samples;Min_cycle;Max_cycle;Signal;HPM_P1;HPM_P2
2021/08/23 00:01:51;;;;;;;16.87;12.47;;;;;;;20.52;100.00;101604.03;5030985;28;20178;-76
2021/08/23 00:04:16;;;;;;;16.93;12.37;;;;;;;20.50;100.00;101606.84;5030854;28;20428;-75
2021/08/23 00:06:42;;;;;;;18.70;10.00;;;;;;;20.48;100.00;101602.66;5030577;28;20273;-76
2021/08/23 00:09:07;;;;;;;15.97;12.23;;;;;;;20.45;100.00;101603.78;5030175;28;20181;-75
2021/08/23 00:11:33;;;;;;;15.53;11.23;;;;;;;20.43;100.00;101605.72;5030411;28;20705;-76
2021/08/23 00:13:58;;;;;;;15.33;11.47;;;;;;;20.40;100.00;101606.03;5030364;28;20264;-76
2021/08/23 00:16:24;;;;;;;16.63;13.00;;;;;;;20.38;100.00;101607.97;5030685;28;20239;-74
2021/08/23 00:18:49;;;;;;;17.20;12.93;;;;;;;20.36;100.00;101604.63;5030913;28;20201;-77
2021/08/23 00:21:21;;;;;;;16.73;12.60;;;;;;;20.37;100.00;101598.28;5034233;28;20251;-75
2021/08/23 00:23:53;;;;;;;16.50;12.93;;;;;;;20.39;100.00;101598.13;5034700;28;20162;-76
2021/08/23 00:26:18;;;;;;;16.40;13.17;;;;;;;20.39;100.00;101596.31;5034388;28;20439;-74
2021/08/23 00:28:44;;;;;;;16.17;12.50;;;;;;;20.37;100.00;101592.94;5034048;28;20454;-74
2021/08/23 00:31:10;;;;;;;15.07;12.13;;;;;;;20.36;100.00;101591.28;5034104;28;20245;-75
2021/08/23 00:33:35;;;;;;;14.17;12.07;;;;;;;20.40;100.00;101586.47;5034687;28;20169;-75
2021/08/23 00:36:01;;;;;;;17.13;11.77;;;;;;;20.42;100.00;101592.53;5034176;28;20551;-76
2021/08/23 00:38:26;;;;;;;13.93;12.03;;;;;;;20.39;100.00;101590.97;5034088;28;20608;-76
2021/08/23 00:40:52;;;;;;;19.30;13.50;;;;;;;20.40;100.00;101592.69;5034108;28;20170;-76
2021/08/23 00:43:17;;;;;;;16.70;12.63;;;;;;;20.39;100.00;101592.78;5034137;28;20174;-75
2021/08/23 00:45:43;;;;;;;13.60;11.10;;;;;;;20.42;100.00;101588.03;5031382;28;20248;-75
2021/08/23 00:48:11;;;;;;;18.43;13.37;;;;;;;20.41;100.00;101583.69;5034128;28;20170;-76
2021/08/23 00:50:37;;;;;;;20.27;13.13;;;;;;;20.47;100.00;101584.94;5033802;28;20174;-74
2021/08/23 00:53:03;;;;;;;16.73;13.37;;;;;;;20.44;100.00;101591.41;5013198;28;20425;-75
2021/08/23 00:55:32;;;;;;;18.43;12.97;;;;;;;20.39;100.00;101592.78;5033452;28;20154;-76
2021/08/23 00:57:58;;;;;;;20.00;14.60;;;;;;;20.36;100.00;101587.75;5033553;28;20790;-76
2021/08/23 01:00:24;;;;;;;24.73;17.00;;;;;;;20.29;100.00;101582.16;5033396;28;20401;-75
2021/08/23 01:02:58;;;;;;;20.43;14.40;;;;;;;20.21;100.00;101582.88;5033517;28;20786;-75
2021/08/23 01:05:30;;;;;;;21.63;15.10;;;;;;;20.14;100.00;101594.28;5033557;28;20249;-76
2021/08/23 01:08:00;;;;;;;18.03;14.33;;;;;;;20.12;100.00;101590.91;5033690;28;20439;-75
2021/08/23 01:10:42;;;;;;;19.03;15.53;;;;;;;20.09;100.00;101576.00;5033512;28;20474;-77
2021/08/23 01:13:07;;;;;;;21.87;14.53;;;;;;;20.08;100.00;101577.00;5033182;28;20405;-76
2021/08/23 01:15:33;;;;;;;19.37;15.47;;;;;;;20.10;100.00;101577.72;5033768;28;20404;-76
2021/08/23 01:17:59;;;;;;;24.27;14.50;;;;;;;20.07;100.00;101579.81;5033571;28;20170;-78
2021/08/23 01:20:25;;;;;;;18.37;15.33;;;;;;;20.06;100.00;101580.81;5033401;28;20243;-75
2021/08/23 01:22:53;;;;;;;24.87;14.40;;;;;;;20.05;100.00;101568.47;5033327;28;20169;-76
2021/08/23 01:25:26;;;;;;;19.50;15.23;;;;;;;20.00;100.00;101576.88;5033173;28;20493;-75
2021/08/23 01:28:33;;;;;;;17.13;13.40;;;;;;;20.05;100.00;101569.28;5033091;28;20452;-75
2021/08/23 01:31:20;;;;;;;24.80;14.00;;;;;;;20.00;100.00;101571.53;4933306;29;20468;-75
2021/08/23 01:33:46;;;;;;;20.77;15.00;;;;;;;19.99;100.00;101559.19;4933802;29;20439;-75
2021/08/23 01:36:13;;;;;;;23.13;16.10;;;;;;;20.00;100.00;101557.38;4996909;28;20513;-75
2021/08/23 01:38:39;;;;;;;19.60;16.40;;;;;;;20.04;100.00;101561.44;5032913;28;20420;-76
2021/08/23 01:41:08;;;;;;;23.33;15.43;;;;;;;19.99;100.00;101561.03;5032976;28;20408;-76
2021/08/23 01:43:34;;;;;;;21.57;15.00;;;;;;;19.93;100.00;101573.09;5033110;28;20473;-76
2021/08/23 01:45:59;;;;;;;21.80;16.70;;;;;;;19.94;100.00;101572.09;5032568;28;20412;-75
2021/08/23 01:48:25;;;;;;;19.70;14.70;;;;;;;19.93;100.00;101565.09;5033079;28;20470;-75
2021/08/23 01:50:51;;;;;;;20.10;15.20;;;;;;;19.92;100.00;101566.09;5032699;28;20174;-74
2021/08/23 01:53:17;;;;;;;20.00;13.53;;;;;;;19.89;100.00;101563.72;5032906;28;20158;-75
2021/08/23 01:55:43;;;;;;;16.20;12.77;;;;;;;19.82;100.00;101560.78;5032470;28;20261;-75
2021/08/23 01:58:09;;;;;;;22.43;14.40;;;;;;;19.85;100.00;101560.47;5032692;28;20467;-74
2021/08/23 02:00:35;;;;;;;18.83;13.37;;;;;;;19.80;100.00;101564.53;5032529;28;20979;-75
2021/08/23 02:03:00;;;;;;;16.47;13.83;;;;;;;19.83;100.00;101561.59;5032665;28;20401;-75
2021/08/23 02:05:28;;;;;;;15.93;12.60;;;;;;;19.87;100.00;101560.31;5032254;28;20174;-76
2021/08/23 02:07:57;;;;;;;19.73;13.47;;;;;;;19.86;100.00;101551.47;5032506;28;20197;-74
2021/08/23 02:10:25;;;;;;;19.47;14.07;;;;;;;19.82;100.00;101550.09;5032704;28;20470;-74
2021/08/23 02:12:50;;;;;;;22.60;16.67;;;;;;;19.77;100.00;101554.16;5032499;28;20409;-74
2021/08/23 02:15:16;;;;;;;21.30;15.73;;;;;;;19.72;100.00;101556.41;5032173;28;20412;-74
2021/08/23 02:17:41;;;;;;;22.03;15.00;;;;;;;19.68;100.00;101562.03;5032327;28;20639;-75
2021/08/23 02:20:12;;;;;;;32.13;18.20;;;;;;;19.63;100.00;101558.09;5031862;28;20217;-75
2021/08/23 02:22:38;;;;;;;22.20;15.53;;;;;;;19.61;100.00;101560.91;5032234;28;20173;-74
2021/08/23 02:25:06;;;;;;;22.30;17.20;;;;;;;19.64;100.00;101567.78;5031793;28;20494;-75
2021/08/23 02:27:32;;;;;;;22.73;16.93;;;;;;;19.65;100.00;101566.81;5031641;28;20440;-77
2021/08/23 02:29:57;;;;;;;19.87;16.17;;;;;;;19.62;100.00;101567.09;5032017;28;20958;-74
2021/08/23 02:32:23;;;;;;;20.43;16.77;;;;;;;19.55;100.00;101569.44;5031793;28;20397;-75
2021/08/23 02:34:48;;;;;;;21.87;16.67;;;;;;;19.45;100.00;101570.44;5031729;28;20166;-75
2021/08/23 02:37:13;;;;;;;24.83;17.87;;;;;;;19.48;100.00;101578.13;5031720;28;20166;-75
2021/08/23 02:39:39;;;;;;;23.00;16.43;;;;;;;19.40;100.00;101573.50;5032030;28;20220;-76
2021/08/23 02:42:05;;;;;;;25.73;18.83;;;;;;;19.35;100.00;101579.28;5031049;28;20174;-76
2021/08/23 02:44:30;;;;;;;30.23;17.73;;;;;;;19.35;100.00;101587.28;5031857;28;20174;-77
2021/08/23 02:46:56;;;;;;;22.07;15.47;;;;;;;19.29;100.00;101590.47;5031581;28;20275;-75
2021/08/23 02:49:21;;;;;;;23.90;18.10;;;;;;;19.34;100.00;101587.38;5031645;28;20760;-75
2021/08/23 02:51:47;;;;;;;20.93;17.17;;;;;;;19.30;100.00;101586.00;5031539;28;20584;-74
2021/08/23 02:54:13;;;;;;;24.50;18.30;;;;;;;19.33;100.00;101583.88;5031762;28;20170;-76
2021/08/23 02:56:38;;;;;;;26.20;18.20;;;;;;;19.29;100.00;101590.47;5031605;28;20683;-75
2021/08/23 02:59:04;;;;;;;26.83;18.20;;;;;;;19.21;100.00;101593.00;5031229;28;20412;-76
2021/08/23 03:01:30;;;;;;;22.30;17.37;;;;;;;19.18;100.00;101597.75;5031381;28;20541;-75
2021/08/23 03:03:56;;;;;;;25.97;16.20;;;;;;;19.11;100.00;101606.28;5031429;28;20474;-74
2021/08/23 03:06:21;;;;;;;22.20;17.60;;;;;;;19.12;100.00;101607.97;5031182;28;20190;-75
2021/08/23 03:08:47;;;;;;;28.87;17.93;;;;;;;19.12;100.00;101605.31;5031088;28;20174;-75
2021/08/23 03:11:13;;;;;;;26.80;18.93;;;;;;;19.09;100.00;101604.72;5031610;28;20196;-75
2021/08/23 03:13:43;;;;;;;27.30;19.17;;;;;;;19.07;100.00;101604.88;5031121;28;20519;-75
2021/08/23 03:16:10;;;;;;;27.80;19.47;;;;;;;19.08;100.00;101606.56;5031086;28;20839;-74
2021/08/23 03:18:36;;;;;;;25.67;17.50;;;;;;;19.07;100.00;101602.22;5030947;28;20409;-74
2021/08/23 03:21:02;;;;;;;24.23;17.20;;;;;;;19.07;100.00;101604.03;5031322;28;20518;-75
2021/08/23 03:23:29;;;;;;;23.13;17.13;;;;;;;19.09;100.00;101613.56;5031132;28;20680;-76
2021/08/23 03:25:57;;;;;;;22.87;17.33;;;;;;;19.02;100.00;101607.09;5017520;28;20928;-74
2021/08/23 03:28:22;;;;;;;24.13;18.27;;;;;;;18.99;100.00;101607.38;5030961;28;20420;-76
2021/08/23 03:30:48;;;;;;;27.30;18.27;;;;;;;19.06;100.00;101613.00;5031034;28;20411;-75
2021/08/23 03:33:14;;;;;;;21.40;18.07;;;;;;;19.06;100.00;101616.50;5031224;28;20188;-73
2021/08/23 03:35:39;;;;;;;30.20;19.53;;;;;;;19.05;100.00;101612.16;5030897;28;20201;-76
2021/08/23 03:38:05;;;;;;;25.07;20.30;;;;;;;19.04;100.00;101615.81;5030653;28;20503;-76
2021/08/23 03:40:31;;;;;;;26.33;20.20;;;;;;;18.98;100.00;101628.84;5030635;28;20264;-75
2021/08/23 03:42:57;;;;;;;30.17;20.20;;;;;;;18.96;100.00;101623.63;5031185;28;20248;-74
2021/08/23 03:45:22;;;;;;;24.50;19.43;;;;;;;18.91;100.00;101622.34;5030546;28;20180;-75
2021/08/23 03:47:48;;;;;;;30.03;21.33;;;;;;;18.96;100.00;101618.28;5030498;28;20205;-75
2021/08/23 03:50:14;;;;;;;26.27;18.73;;;;;;;19.05;100.00;101620.16;5030774;28;20177;-75
2021/08/23 03:52:39;;;;;;;24.70;18.00;;;;;;;19.06;100.00;101616.50;5031131;28;20260;-74
2021/08/23 03:55:07;;;;;;;26.10;18.93;;;;;;;19.06;100.00;101624.50;5030660;28;20650;-73
2021/08/23 03:57:35;;;;;;;27.10;19.27;;;;;;;19.08;100.00;101619.88;5030874;28;20189;-76
2021/08/23 04:00:01;;;;;;;26.30;19.17;;;;;;;19.10;100.00;101622.41;5030574;28;20400;-73
2021/08/23 04:02:26;;;;;;;27.20;21.20;;;;;;;19.16;100.00;101613.88;5030938;28;20477;-75
2021/08/23 04:04:52;;;;;;;31.60;23.60;;;;;;;19.16;100.00;101616.53;5030264;28;20416;-72
2021/08/23 04:07:17;;;;;;;27.70;22.87;;;;;;;19.11;100.00;101626.75;5030296;28;20208;-73
2021/08/23 04:09:42;;;;;;;29.93;21.07;;;;;;;19.18;100.00;101622.56;5030342;28;20308;-75
2021/08/23 04:12:08;;;;;;;29.30;20.23;;;;;;;19.20;100.00;101620.63;5030539;28;20177;-74
2021/08/23 04:14:33;;;;;;;26.43;19.27;;;;;;;19.26;100.00;101622.72;5030910;28;20219;-75
2021/08/23 04:16:59;;;;;;;24.20;19.63;;;;;;;19.29;100.00;101621.63;5030208;28;20213;-76
2021/08/23 04:19:24;;;;;;;26.00;21.37;;;;;;;19.32;100.00;101613.34;5030607;28;20598;-76
2021/08/23 04:21:50;;;;;;;27.10;20.67;;;;;;;19.36;100.00;101606.75;5030148;28;20217;-75
2021/08/23 04:24:15;;;;;;;23.67;18.07;;;;;;;19.43;100.00;101607.06;5030191;28;20219;-76
2021/08/23 04:26:41;;;;;;;23.93;20.60;;;;;;;19.62;100.00;101615.94;5030263;28;20204;-74
2021/08/23 04:29:07;;;;;;;27.50;19.13;;;;;;;19.89;100.00;101596.56;5031082;28;20526;-76
2021/08/23 04:31:32;;;;;;;29.93;21.07;;;;;;;20.11;100.00;101589.22;5030202;28;20262;-77
2021/08/23 04:33:58;;;;;;;25.30;18.43;;;;;;;20.06;100.00;101583.47;5030414;28;20235;-75
2021/08/23 04:36:24;;;;;;;26.70;19.67;;;;;;;20.16;100.00;101587.78;5030225;28;20352;-75
2021/08/23 04:38:49;;;;;;;30.37;20.20;;;;;;;20.43;100.00;101591.53;5030065;28;20649;-75
2021/08/23 04:41:15;;;;;;;28.63;18.97;;;;;;;20.56;100.00;101591.25;5029992;28;20201;-76
2021/08/23 04:43:40;;;;;;;24.27;18.50;;;;;;;20.35;100.00;101578.91;5029943;28;20602;-76
2021/08/23 04:46:06;;;;;;;25.10;19.53;;;;;;;20.15;100.00;101582.59;5029869;28;20712;-76
2021/08/23 04:48:31;;;;;;;22.83;18.47;;;;;;;20.03;100.00;101589.13;5030318;28;20206;-75
2021/08/23 04:50:57;;;;;;;27.30;21.00;;;;;;;20.00;100.00;101590.22;5012059;28;20563;-76
2021/08/23 04:53:22;;;;;;;26.93;20.00;;;;;;;20.03;100.00;101587.28;5029922;28;20241;-76
2021/08/23 04:55:47;;;;;;;26.50;19.30;;;;;;;20.09;100.00;101586.69;5030127;28;20185;-76
2021/08/23 04:58:13;;;;;;;31.03;19.80;;;;;;;20.21;100.00;101585.53;5029767;28;20205;-76
2021/08/23 05:00:38;;;;;;;29.60;21.70;;;;;;;20.34;100.00;101579.91;5030251;28;20257;-75
2021/08/23 05:03:06;;;;;;;25.60;20.27;;;;;;;20.34;100.00;101584.41;5030138;28;20174;-76
2021/08/23 05:05:31;;;;;;;31.17;22.80;;;;;;;20.38;100.00;101583.09;5031485;28;20161;-77
2021/08/23 05:07:57;;;;;;;34.33;22.03;;;;;;;20.50;100.00;101580.16;5033512;28;20486;-75
2021/08/23 05:10:22;;;;;;;30.27;21.87;;;;;;;20.55;100.00;101584.19;5031964;28;20658;-75
2021/08/23 05:12:47;;;;;;;30.93;21.13;;;;;;;20.72;100.00;101586.94;5032626;28;20197;-75
2021/08/23 05:15:13;;;;;;;33.73;22.30;;;;;;;20.79;100.00;101587.22;5033227;28;20174;-74
2021/08/23 05:17:39;;;;;;;30.93;21.30;;;;;;;20.77;100.00;101584.66;5033246;28;20166;-72
2021/08/23 05:20:05;;;;;;;31.00;20.00;;;;;;;20.78;100.00;101581.03;5022703;28;20222;-74
2021/08/23 05:22:31;;;;;;;24.23;19.30;;;;;;;20.89;100.00;101590.66;5032776;28;20297;-75
2021/08/23 05:24:56;;;;;;;27.17;20.30;;;;;;;20.97;100.00;101587.25;5033127;28;20404;-77
2021/08/23 05:27:21;;;;;;;34.37;21.23;;;;;;;20.99;100.00;101595.94;5033176;28;20190;-75
2021/08/23 05:29:47;;;;;;;26.63;20.10;;;;;;;21.05;100.00;101590.84;5032925;28;20551;-75
2021/08/23 05:32:16;;;;;;;26.90;18.27;;;;;;;21.12;100.00;101593.75;5032878;28;20634;-73
2021/08/23 05:34:44;;;;;;;23.83;19.07;;;;;;;21.22;100.00;101591.84;5033145;28;20177;-74
2021/08/23 05:37:11;;;;;;;26.57;18.63;;;;;;;21.34;100.00;101584.50;5032398;28;20760;-77
2021/08/23 05:39:37;;;;;;;28.53;16.50;;;;;;;21.53;100.00;101589.69;5032984;28;20451;-76
2021/08/23 05:42:03;;;;;;;26.30;17.23;;;;;;;21.63;100.00;101583.44;5033165;28;20412;-76
2021/08/23 05:44:28;;;;;;;24.30;17.43;;;;;;;21.57;100.00;101591.09;5032093;28;20170;-75
2021/08/23 05:46:54;;;;;;;19.97;17.27;;;;;;;21.57;100.00;101596.44;5032453;28;20201;-75
2021/08/23 05:49:19;;;;;;;24.37;17.40;;;;;;;21.69;100.00;101589.03;5032143;28;20193;-73
2021/08/23 05:51:45;;;;;;;23.07;15.27;;;;;;;21.79;100.00;101583.59;5031992;28;20181;-75
2021/08/23 05:54:12;;;;;;;21.30;15.40;;;;;;;21.95;100.00;101577.50;5032611;28;20304;-75
2021/08/23 05:56:40;;;;;;;21.93;15.40;;;;;;;22.06;100.00;101571.88;5032331;28;20173;-76
2021/08/23 05:59:07;;;;;;;22.57;15.40;;;;;;;22.18;100.00;101568.00;5031967;28;20413;-75
2021/08/23 06:01:33;;;;;;;27.53;22.40;;;;;;;22.28;100.00;101563.38;5032717;28;20490;-75
2021/08/23 06:03:59;;;;;;;22.00;15.40;;;;;;;22.46;100.00;101560.63;5032568;28;20991;-76
2021/08/23 06:06:25;;;;;;;19.30;14.00;;;;;;;22.66;100.00;101563.91;5031773;28;20193;-76
2021/08/23 06:08:50;;;;;;;17.60;13.67;;;;;;;22.80;100.00;101554.41;5032142;28;20405;-75
2021/08/23 06:11:16;;;;;;;20.80;14.80;;;;;;;22.90;100.00;101557.84;5032417;28;20179;-74
2021/08/23 06:13:43;;;;;;;21.73;15.33;;;;;;;23.04;100.00;101564.38;5032277;28;20634;-76
2021/08/23 06:16:08;;;;;;;22.60;16.30;;;;;;;23.11;100.00;101546.66;5031373;28;20252;-75
2021/08/23 06:18:34;;;;;;;26.00;17.20;;;;;;;23.18;100.00;101545.81;5031992;28;20570;-74
2021/08/23 06:21:00;;;;;;;21.13;15.20;;;;;;;23.34;100.00;101547.69;5032031;28;20220;-75
2021/08/23 06:23:26;;;;;;;25.67;16.33;;;;;;;23.42;100.00;101545.00;5031688;28;20208;-74
2021/08/23 06:25:52;;;;;;;16.87;11.00;;;;;;;23.60;100.00;101546.72;5031550;28;20408;-74
2021/08/23 06:28:20;;;;;;;23.57;14.00;;;;;;;23.88;100.00;101552.59;5031995;28;20194;-74
2021/08/23 06:30:45;;;;;;;13.63;10.30;;;;;;;24.04;100.00;101556.09;5031339;28;20209;-75
2021/08/23 06:33:11;;;;;;;16.30;9.27;;;;;;;24.23;100.00;101551.34;5031447;28;20449;-74
2021/08/23 06:35:36;;;;;;;16.17;9.30;;;;;;;24.38;100.00;101546.13;5031537;28;20177;-75
2021/08/23 06:38:02;;;;;;;14.33;9.70;;;;;;;24.59;100.00;101543.72;5031138;28;20601;-75
2021/08/23 06:40:28;;;;;;;12.90;9.40;;;;;;;24.73;100.00;101552.91;5031214;28;20173;-74
2021/08/23 06:42:53;;;;;;;13.20;9.70;;;;;;;24.87;100.00;101552.16;5031707;28;20170;-74
2021/08/23 06:45:19;;;;;;;14.13;8.80;;;;;;;25.06;100.00;101548.19;5031298;28;20170;-75
2021/08/23 06:47:44;;;;;;;10.97;6.77;;;;;;;25.24;100.00;101550.59;5027588;28;20202;-77
2021/08/23 06:50:10;;;;;;;10.77;6.67;;;;;;;25.39;100.00;101540.72;5021002;28;20173;-75
2021/08/23 06:52:37;;;;;;;8.30;6.10;;;;;;;25.54;100.00;101547.00;5031140;28;20260;-76
2021/08/23 06:55:03;;;;;;;8.23;6.17;;;;;;;25.58;100.00;101540.25;5013388;28;20178;-74
2021/08/23 06:57:29;;;;;;;10.77;6.13;;;;;;;25.74;100.00;101536.63;5031133;28;20432;-74
2021/08/23 06:59:55;;;;;;;10.13;6.40;;;;;;;25.84;100.00;101539.88;5030900;28;20420;-75
2021/08/23 07:02:20;;;;;;;10.87;8.80;;;;;;;25.91;100.00;101538.13;5031261;28;20505;-74
2021/08/23 07:04:49;;;;;;;8.27;6.60;;;;;;;26.07;100.00;101534.47;5030441;28;20265;-75
2021/08/23 07:07:16;;;;;;;12.90;7.87;;;;;;;26.10;100.00;101534.06;5030589;28;20198;-76
2021/08/23 07:09:41;;;;;;;8.40;6.10;;;;;;;26.16;100.00;101532.50;5030502;28;20409;-76
2021/08/23 07:12:07;;;;;;;11.47;6.40;;;;;;;26.19;100.00;101532.13;5030561;28;20416;-75
2021/08/23 07:14:33;;;;;;;12.43;6.33;;;;;;;26.27;100.00;101537.41;5012592;28;20208;-77
2021/08/23 07:16:59;;;;;;;31.73;7.73;;;;;;;26.35;100.00;101541.88;5031065;28;20412;-74
2021/08/23 07:19:24;;;;;;;10.00;6.20;;;;;;;26.41;100.00;101543.88;5030398;28;20174;-77
2021/08/23 07:21:50;;;;;;;13.93;6.20;;;;;;;26.48;100.00;101545.63;5030238;28;20283;-75
2021/08/23 07:24:16;;;;;;;11.33;6.50;;;;;;;26.46;100.00;101541.44;5030976;28;20678;-75
2021/08/23 07:26:42;;;;;;;9.87;6.87;;;;;;;26.52;100.00;101537.97;5030422;28;20216;-75
2021/08/23 07:29:09;;;;;;;8.50;6.27;;;;;;;26.57;100.00;101526.66;5030056;28;20405;-76
2021/08/23 07:31:35;;;;;;;10.10;5.27;;;;;;;26.63;100.00;101531.28;5030049;28;20181;-74
2021/08/23 07:34:00;;;;;;;12.80;6.70;;;;;;;26.73;100.00;101529.13;5030180;28;20467;-75
2021/08/23 07:36:26;;;;;;;16.90;6.50;;;;;;;26.75;100.00;101537.84;5030445;28;20169;-76
2021/08/23 07:38:51;;;;;;;10.73;6.60;;;;;;;26.89;100.00;101534.28;5016125;28;20562;-76
2021/08/23 07:41:17;;;;;;;11.23;6.30;;;;;;;26.91;100.00;101542.22;5030271;28;20717;-76
2021/08/23 07:43:42;;;;;;;8.13;5.90;;;;;;;26.98;100.00;101538.56;5030040;28;20545;-76
2021/08/23 07:46:10;;;;;;;10.77;6.50;;;;;;;27.01;100.00;101540.88;5030023;28;20185;-76
2021/08/23 07:48:35;;;;;;;8.13;6.13;;;;;;;27.08;100.00;101549.91;5030623;28;20204;-76
2021/08/23 07:51:01;;;;;;;9.80;6.50;;;;;;;27.13;100.00;101545.78;5030222;28;20491;-75
2021/08/23 07:53:27;;;;;;;6.77;5.27;;;;;;;27.06;100.00;101543.88;5029833;28;20577;-76
2021/08/23 07:55:53;;;;;;;13.27;6.50;;;;;;;27.09;100.00;101550.75;5030208;28;20204;-76
2021/08/23 07:58:18;;;;;;;9.70;6.33;;;;;;;27.20;100.00;101552.09;5027307;28;20171;-75
2021/08/23 08:00:44;;;;;;;9.33;6.03;;;;;;;27.28;100.00;101552.81;5019223;28;20269;-75
2021/08/23 08:03:09;;;;;;;17.20;6.77;;;;;;;27.28;100.00;101558.22;5030226;28;20174;-76
2021/08/23 08:05:38;;;;;;;8.73;6.53;;;;;;;27.35;100.00;101552.88;5030923;28;20170;-74
2021/08/23 08:08:08;;;;;;;10.90;6.67;;;;;;;27.44;100.00;101561.69;5030587;28;20202;-75
2021/08/23 08:10:37;;;;;;;8.73;7.20;;;;;;;27.51;100.00;101559.91;5029776;28;20412;-75
2021/08/23 08:13:03;;;;;;;11.50;6.67;;;;;;;27.59;100.00;101557.88;5030320;28;20397;-76
2021/08/23 08:15:28;;;;;;;9.17;7.27;;;;;;;27.48;100.00;101563.78;5030276;28;20455;-74
2021/08/23 08:17:54;;;;;;;10.77;6.80;;;;;;;27.54;100.00;101556.78;5030245;28;20513;-76
2021/08/23 08:20:20;;;;;;;14.23;8.60;;;;;;;27.62;100.00;101556.66;5029419;28;20221;-75
2021/08/23 08:22:45;;;;;;;10.63;7.40;;;;;;;27.70;100.00;101550.31;5029906;28;20158;-75
2021/08/23 08:25:12;;;;;;;10.33;7.80;;;;;;;27.60;100.00;101558.72;5029973;28;20176;-76
2021/08/23 08:27:38;;;;;;;9.60;6.57;;;;;;;27.70;100.00;101556.53;5029909;28;20544;-75
2021/08/23 08:30:09;;;;;;;13.07;7.90;;;;;;;27.77;100.00;101543.09;5030541;28;20435;-75
2021/08/23 08:32:35;;;;;;;12.80;6.70;;;;;;;27.76;100.00;101546.84;5029782;28;20176;-75
2021/08/23 08:35:00;;;;;;;11.03;7.30;;;;;;;27.73;100.00;101553.44;5008632;28;20433;-84
2021/08/23 08:37:26;;;;;;;13.93;8.10;;;;;;;27.83;100.00;101548.56;5026877;28;20197;-76
2021/08/23 08:39:52;;;;;;;11.30;7.37;;;;;;;27.84;100.00;101547.53;5030543;28;20209;-76
2021/08/23 08:42:19;;;;;;;8.00;6.60;;;;;;;27.98;100.00;101550.31;5033367;28;20419;-76
2021/08/23 08:44:46;;;;;;;9.50;6.53;;;;;;;27.99;100.00;101547.44;5033612;28;20510;-75
2021/08/23 08:47:16;;;;;;;10.53;7.70;;;;;;;28.01;100.00;101541.81;5033372;28;20451;-76
2021/08/23 08:49:42;;;;;;;14.60;8.30;;;;;;;27.99;100.00;101547.44;5033678;28;20495;-78
2021/08/23 08:52:09;;;;;;;11.50;7.50;;;;;;;28.07;100.00;101543.72;5033615;28;20404;-76
2021/08/23 08:54:35;;;;;;;8.37;7.40;;;;;;;28.12;100.00;101534.00;5033452;28;20417;-76
2021/08/23 08:57:02;;;;;;;8.90;7.60;;;;;;;28.13;100.00;101532.13;5033123;28;20536;-76
2021/08/23 08:59:28;;;;;;;13.93;8.07;;;;;;;27.98;100.00;101526.00;5033535;28;20205;-75
2021/08/23 09:01:53;;;;;;;12.47;7.97;;;;;;;28.08;100.00;101527.31;5033247;28;20990;-76
2021/08/23 09:04:28;;;;;;;16.00;9.50;;;;;;;28.12;100.00;101533.16;5032868;28;20948;-75
2021/08/23 09:06:56;;;;;;;12.40;7.47;;;;;;;28.19;100.00;101520.53;5032314;28;20199;-74
2021/08/23 09:09:22;;;;;;;10.73;7.43;;;;;;;28.34;100.00;101526.69;5032390;28;20400;-76
2021/08/23 09:11:55;;;;;;;13.73;7.53;;;;;;;28.29;100.00;101526.41;5032177;28;20428;-76
2021/08/23 09:14:21;;;;;;;9.60;6.27;;;;;;;28.25;100.00;101525.13;5032461;28;20439;-75
2021/08/23 09:16:47;;;;;;;10.33;6.27;;;;;;;28.35;100.00;101519.41;5031802;28;20409;-76
2021/08/23 09:19:26;;;;;;;13.40;7.37;;;;;;;28.24;100.00;101520.75;5019404;28;20204;-75
2021/08/23 09:22:18;;;;;;;9.53;6.83;;;;;;;28.35;100.00;101512.13;5032203;28;20707;-76
2021/08/23 09:24:45;;;;;;;10.00;6.80;;;;;;;28.43;100.00;101522.75;5032635;28;20417;-74
2021/08/23 09:27:14;;;;;;;14.70;9.20;;;;;;;28.40;100.00;101515.03;5032452;28;21016;-76
2021/08/23 09:29:56;;;;;;;10.73;5.80;;;;;;;28.51;100.00;101510.09;5032782;28;20903;-76
2021/08/23 09:32:33;;;;;;;8.40;5.70;;;;;;;28.56;100.00;101510.31;5032908;28;20762;-76
2021/08/23 09:34:59;;;;;;;10.33;6.33;;;;;;;28.62;100.00;101501.41;5031951;28;20909;-76
2021/08/23 09:37:30;;;;;;;10.57;6.23;;;;;;;28.54;100.00;101509.69;5032090;28;20423;-78
2021/08/23 09:40:06;;;;;;;8.27;5.97;;;;;;;28.64;100.00;101510.13;5031963;28;20757;-76
2021/08/23 09:42:32;;;;;;;11.23;6.70;;;;;;;28.66;100.00;101508.09;5031745;28;20455;-76
2021/08/23 09:44:57;;;;;;;9.10;5.40;;;;;;;28.80;100.00;101512.50;5031897;28;20556;-77
2021/08/23 09:47:30;;;;;;;12.50;6.47;;;;;;;28.79;100.00;101504.56;5031542;28;20189;-77
2021/08/23 09:49:56;;;;;;;10.97;6.60;;;;;;;28.82;100.00;101510.44;5011124;28;20201;-76
2021/08/23 09:52:34;;;;;;;9.47;6.10;;;;;;;28.83;100.00;101514.78;5026414;28;20439;-75
2021/08/23 09:55:06;;;;;;;10.70;6.70;;;;;;;28.68;100.00;101516.81;5032093;28;20791;-76
2021/08/23 09:57:38;;;;;;;9.10;6.33;;;;;;;28.71;100.00;101513.69;5032745;28;20405;-76
2021/08/23 10:00:07;;;;;;;12.07;7.03;;;;;;;28.76;100.00;101511.22;5032454;28;20496;-78
2021/08/23 10:02:34;;;;;;;12.33;7.50;;;;;;;28.83;100.00;101509.38;5012717;28;20453;-75
2021/08/23 10:05:00;;;;;;;10.10;7.27;;;;;;;28.97;100.00;101513.81;5028247;28;20449;-76
2021/08/23 10:07:28;;;;;;;10.43;7.90;;;;;;;29.25;100.00;101518.25;5031646;28;20466;-76
2021/08/23 10:10:00;;;;;;;9.03;6.23;;;;;;;29.28;100.00;101518.66;5031981;28;20753;-77
2021/08/23 10:12:25;;;;;;;126.43;112.17;;;;;;;29.22;100.00;101515.94;5032228;28;20397;-76
2021/08/23 10:14:51;;;;;;;10.03;7.40;;;;;;;29.17;100.00;101516.56;5031321;28;20467;-75
2021/08/23 10:17:17;;;;;;;11.30;6.50;;;;;;;29.33;100.00;101518.06;5031366;28;20532;-76
2021/08/23 10:19:44;;;;;;;9.43;6.83;;;;;;;29.44;100.00;101508.47;5031580;28;20424;-74
2021/08/23 10:22:13;;;;;;;9.77;7.00;;;;;;;29.60;100.00;101512.66;5031111;28;20531;-76
2021/08/23 10:24:40;;;;;;;10.00;6.50;;;;;;;29.69;100.00;101505.97;5031718;28;20487;-76
2021/08/23 10:27:06;;;;;;;10.70;7.10;;;;;;;29.78;100.00;101510.16;5017068;28;20472;-75
2021/08/23 10:29:39;;;;;;;10.30;6.93;;;;;;;29.88;100.00;101499.72;5030700;28;20436;-75
2021/08/23 10:32:09;;;;;;;13.20;7.50;;;;;;;30.06;100.00;101499.88;5031313;28;20185;-76
2021/08/23 10:34:37;;;;;;;10.17;6.40;;;;;;;30.02;100.00;101501.34;5031888;28;20853;-76
2021/08/23 10:37:02;;;;;;;8.93;6.27;;;;;;;29.94;100.00;101498.88;5031423;28;20408;-76
2021/08/23 10:39:28;;;;;;;10.83;6.30;;;;;;;29.99;100.00;101496.34;5030719;28;20397;-76
2021/08/23 10:41:57;;;;;;;10.30;6.10;;;;;;;29.90;100.00;101500.31;5013456;28;20285;-75
2021/08/23 10:44:30;;;;;;;14.00;7.40;;;;;;;29.73;100.00;101499.09;5013166;28;20408;-76
2021/08/23 10:47:29;;;;;;;12.20;6.37;;;;;;;30.04;100.00;101485.69;5013702;28;20901;-76
2021/08/23 10:49:55;;;;;;;7.93;5.80;;;;;;;30.10;100.00;101490.31;5030904;28;20896;-75
2021/08/23 10:52:30;;;;;;;29.43;6.73;;;;;;;30.03;100.00;101484.03;5031128;28;20900;-76
2021/08/23 10:54:56;;;;;;;11.30;6.27;;;;;;;30.27;100.00;101484.41;5030909;28;20184;-75
2021/08/23 10:57:22;;;;;;;7.83;5.70;;;;;;;30.53;100.00;101481.59;5031071;28;20405;-75
2021/08/23 10:59:49;;;;;;;8.83;5.80;;;;;;;30.80;100.00;101479.59;5030572;28;20177;-76
2021/08/23 11:02:28;;;;;;;7.90;5.43;;;;;;;31.14;100.00;101480.22;5030320;28;20437;-77
2021/08/23 11:05:10;;;;;;;10.20;6.17;;;;;;;31.61;100.00;101472.53;5031254;28;21110;-76